Time;durP1;ratioP1;P1;durP2;ratioP2;P2;SDS_P1;SDS_P2;PMS_P1;PMS_P2;Temp;Humidity;BMP_temperature;BMP_pressure;BME280_temperature;BME280_humidity;BME280_pressure;Samples;Min_cycle;Max_cycle;Signal;HPM_P1;HPM_P2
2022/08/24 00:01:50;;;;;;;;;7.20;5.20;;;;;24.80;54.03;101256.03;5099198;27;45719;-55
2022/08/24 00:04:15;;;;;;;;;6.00;6.00;;;;;24.79;54.27;101255.19;5099439;27;45322;-55
2022/08/24 00:06:40;;;;;;;;;5.00;5.00;;;;;24.79;54.07;101254.38;5099495;27;45422;-55
2022/08/24 00:09:06;;;;;;;;;4.00;4.00;;;;;24.68;53.92;101239.63;5099683;27;45176;-56
2022/08/24 00:11:31;;;;;;;;;4.75;4.75;;;;;24.74;54.69;101255.06;5099302;27;45963;-56
2022/08/24 00:13:57;;;;;;;;;4.00;4.00;;;;;24.71;54.38;101255.50;5099159;27;45326;-55
2022/08/24 00:16:22;;;;;;;;;5.50;4.75;;;;;24.67;55.10;101258.91;5099042;27;45199;-56
2022/08/24 00:18:48;;;;;;;;;5.75;4.75;;;;;24.64;55.15;101252.03;5099549;27;45444;-56
2022/08/24 00:21:14;;;;;;;;;4.60;4.60;;;;;24.63;55.09;101250.38;5098734;27;45369;-56
2022/08/24 00:23:40;;;;;;;;;2.40;2.40;;;;;24.59;55.24;101247.25;5099146;27;45439;-53
2022/08/24 00:26:06;;;;;;;;;4.75;3.00;;;;;24.56;55.87;101253.16;5099230;27;45476;-55
2022/08/24 00:28:32;;;;;;;;;4.80;3.00;;;;;24.55;55.69;101254.22;5099290;27;45306;-56
2022/08/24 00:30:57;;;;;;;;;3.50;3.50;;;;;24.53;55.54;101253.63;5098761;27;45393;-56
2022/08/24 00:33:23;;;;;;;;;5.00;4.25;;;;;24.48;55.44;101256.19;5098563;27;45406;-55
2022/08/24 00:35:49;;;;;;;;;4.00;3.75;;;;;24.46;55.63;101255.59;5099073;27;45323;-56
2022/08/24 00:38:14;;;;;;;;;3.75;3.75;;;;;24.44;56.50;101248.69;5098830;27;45327;-56
2022/08/24 00:40:44;;;;;;;;;2.75;2.75;;;;;24.42;56.37;101258.97;5098730;27;46135;-55
2022/08/24 00:43:10;;;;;;;;;3.00;3.00;;;;;24.38;56.72;101250.44;5098619;27;45425;-55
2022/08/24 00:45:54;;;;;;;;;4.25;4.00;;;;;24.36;56.56;101253.38;5098832;27;45554;-54
2022/08/24 00:48:25;;;;;;;;;5.00;4.20;;;;;24.34;56.49;101247.31;5099085;27;45345;-56
2022/08/24 00:50:59;;;;;;;;;6.80;2.80;;;;;24.32;56.32;101249.44;5098056;27;46320;-56
2022/08/24 00:53:31;;;;;;;;;4.00;4.00;;;;;24.28;56.53;101250.09;5098663;27;45379;-56
2022/08/24 00:56:00;;;;;;;;;5.00;3.00;;;;;24.24;56.61;101248.91;5097989;27;45350;-55
2022/08/24 00:58:50;;;;;;;;;3.80;3.80;;;;;24.08;56.38;101229.38;5098687;27;45318;-55
2022/08/24 01:01:15;;;;;;;;;4.80;3.80;;;;;24.20;57.33;101245.78;5097520;27;45292;-56
2022/08/24 01:03:42;;;;;;;;;3.75;3.75;;;;;24.13;57.24;101242.28;5098287;27;45405;-55
2022/08/24 01:06:09;;;;;;;;;5.00;5.00;;;;;24.09;56.99;101232.94;5098285;27;45458;-55
2022/08/24 01:08:34;;;;;;;;;2.40;2.40;;;;;24.10;57.74;101242.72;5098558;27;45310;-55
2022/08/24 01:11:13;;;;;;;;;3.75;3.75;;;;;24.10;57.44;101248.16;5098135;27;47154;-56
2022/08/24 01:13:43;;;;;;;;;3.80;3.80;;;;;24.08;57.34;101247.56;5098189;27;45579;-56
2022/08/24 01:16:10;;;;;;;;;3.20;3.20;;;;;23.94;57.86;101230.56;5098046;27;45468;-54
2022/08/24 01:18:50;;;;;;;;;4.00;4.00;;;;;24.05;57.67;101248.00;5098455;27;45414;-55
2022/08/24 01:21:33;;;;;;;;;1.80;1.80;;;;;24.03;57.70;101244.72;5098030;27;45386;-56
2022/08/24 01:24:02;;;;;;;;;2.80;2.00;;;;;24.01;57.88;101252.25;5098002;27;45365;-55
2022/08/24 01:26:38;;;;;;;;;3.20;2.60;;;;;23.89;58.29;101228.53;5098115;27;45500;-55
2022/08/24 01:29:13;;;;;;;;;2.60;2.60;;;;;24.03;58.17;101242.81;5098438;27;45246;-56
2022/08/24 01:31:38;;;;;;;;;4.00;4.00;;;;;24.01;58.60;101254.97;5097934;27;46157;-56
2022/08/24 01:34:04;;;;;;;;;6.25;3.50;;;;;24.00;58.17;101258.72;5097925;27;45287;-56
2022/08/24 01:36:37;;;;;;;;;4.20;3.60;;;;;23.88;58.35;101242.31;5098025;27;45391;-54
2022/08/24 01:39:14;;;;;;;;;4.20;2.00;;;;;23.98;58.60;101258.13;5097912;27;45453;-55
2022/08/24 01:41:39;;;;;;;;;3.80;3.80;;;;;23.95;58.85;101261.28;5097601;27;46178;-53
2022/08/24 01:44:06;;;;;;;;;3.00;3.00;;;;;23.93;59.15;101261.50;5097576;27;45366;-54
2022/08/24 01:46:32;;;;;;;;;3.75;3.75;;;;;23.82;59.01;101245.94;5097976;27;45319;-54
2022/08/24 01:48:58;;;;;;;;;3.00;3.00;;;;;23.94;59.09;101260.47;5097981;27;45424;-54
2022/08/24 01:51:29;;;;;;;;;3.80;3.80;;;;;23.94;58.78;101263.19;5097480;27;46322;-53
2022/08/24 01:53:54;;;;;;;;;4.40;3.20;;;;;23.95;58.78;101261.28;5097754;27;45243;-54
2022/08/24 01:56:20;;;;;;;;;4.25;3.50;;;;;23.95;58.99;101262.13;5097740;27;45436;-54
2022/08/24 01:58:47;;;;;;;;;2.50;2.50;;;;;23.93;58.88;101258.78;5097819;27;45428;-54
2022/08/24 02:01:17;;;;;;;;;2.40;2.40;;;;;23.89;59.46;101252.13;5096908;27;45305;-52
2022/08/24 02:03:43;;;;;;;;;4.40;4.40;;;;;23.81;59.43;101250.53;5096743;27;45430;-53
2022/08/24 02:06:09;;;;;;;;;3.25;3.25;;;;;23.81;59.46;101252.44;5097811;27;45294;-54
2022/08/24 02:08:35;;;;;;;;;2.50;2.50;;;;;23.69;59.33;101237.91;5097868;27;45191;-54
2022/08/24 02:11:10;;;;;;;;;3.20;3.00;;;;;23.80;59.11;101248.03;5097110;27;46148;-52
2022/08/24 02:13:37;;;;;;;;;2.60;2.60;;;;;23.77;59.44;101251.22;5097558;27;45310;-53
2022/08/24 02:16:04;;;;;;;;;3.00;3.00;;;;;23.76;59.76;101249.53;5097478;27;45523;-53
2022/08/24 02:18:30;;;;;;;;;2.60;2.60;;;;;23.73;59.02;101250.00;5097804;27;45400;-53
2022/08/24 02:20:55;;;;;;;;;3.75;3.00;;;;;23.71;59.52;101249.38;5097331;27;45383;-54
2022/08/24 02:23:21;;;;;;;;;3.25;2.50;;;;;23.69;59.24;101246.88;5097147;27;45264;-51
2022/08/24 02:25:46;;;;;;;;;2.00;2.00;;;;;23.68;59.81;101250.63;5097503;27;45326;-50
2022/08/24 02:28:12;;;;;;;;;3.25;3.25;;;;;23.68;60.33;101250.63;5097483;27;45461;-53
2022/08/24 02:30:39;;;;;;;;;5.25;3.00;;;;;23.67;60.32;101253.56;5096447;27;45435;-52
2022/08/24 02:33:05;;;;;;;;;3.40;3.00;;;;;23.64;60.24;101258.38;5097290;27;45318;-51
2022/08/24 02:35:31;;;;;;;;;4.60;2.60;;;;;23.59;59.85;101239.16;5097279;27;45165;-51
2022/08/24 02:37:57;;;;;;;;;4.20;3.60;;;;;23.54;60.19;101235.47;5097188;27;45450;-55
2022/08/24 02:40:23;;;;;;;;;5.80;5.00;;;;;23.52;60.08;101238.41;5096983;27;46049;-52
2022/08/24 02:42:49;;;;;;;;;3.80;2.40;;;;;23.51;60.31;101231.31;5097097;27;45376;-54
2022/08/24 02:45:14;;;;;;;;;2.50;2.50;;;;;23.57;60.34;101251.31;5097234;27;45458;-55
2022/08/24 02:47:40;;;;;;;;;2.75;2.75;;;;;23.56;60.13;101241.53;5097038;27;45279;-53
2022/08/24 02:50:09;;;;;;;;;4.25;3.00;;;;;23.56;60.18;101239.63;5097097;27;46292;-53
2022/08/24 02:52:37;;;;;;;;;4.60;2.80;;;;;23.57;60.35;101249.44;5096943;27;45513;-55
2022/08/24 02:55:03;;;;;;;;;4.00;3.00;;;;;23.56;60.35;101246.97;5096985;27;45437;-52
2022/08/24 02:57:29;;;;;;;;;4.00;2.40;;;;;23.53;60.32;101245.50;5097307;27;45401;-52
2022/08/24 02:59:54;;;;;;;;;2.50;1.50;;;;;23.52;60.57;101245.72;5096651;27;47205;-54
2022/08/24 03:02:19;;;;;;;;;4.00;4.00;;;;;23.51;60.06;101250.34;5096673;27;45532;-55
2022/08/24 03:04:45;;;;;;;;;4.75;2.75;;;;;23.48;60.79;101255.38;5061120;27;45364;-51
2022/08/24 03:07:10;;;;;;;;;2.50;2.50;;;;;23.46;60.60;101247.41;5097001;27;45370;-53
2022/08/24 03:09:36;;;;;;;;;3.50;3.00;;;;;23.44;60.43;101246.81;5078106;27;47832;-50
2022/08/24 03:12:01;;;;;;;;;3.00;2.50;;;;;23.38;60.52;101244.97;5096555;27;45476;-51
2022/08/24 03:14:27;;;;;;;;;2.75;2.00;;;;;23.37;60.65;101246.03;5099295;27;45369;-51
2022/08/24 03:16:52;;;;;;;;;3.00;3.00;;;;;23.38;60.67;101258.53;5100641;27;45468;-50
2022/08/24 03:19:17;;;;;;;;;3.00;3.00;;;;;23.36;61.11;101250.63;5100085;27;46223;-51
2022/08/24 03:21:43;;;;;;;;;4.00;4.00;;;;;23.36;60.72;101253.34;5100470;27;45432;-51
2022/08/24 03:24:08;;;;;;;;;4.00;4.00;;;;;23.35;60.91;101245.44;5099057;27;45539;-49
2022/08/24 03:26:33;;;;;;;;;3.50;3.25;;;;;23.34;60.93;101250.03;5100577;27;45321;-53
2022/08/24 03:28:59;;;;;;;;;3.00;2.00;;;;;23.37;60.81;101248.75;5100270;27;45958;-52
2022/08/24 03:31:24;;;;;;;;;2.00;2.00;;;;;23.36;60.74;101252.50;5099443;27;45255;-52
2022/08/24 03:33:50;;;;;;;;;3.25;3.25;;;;;23.36;60.81;101247.09;5100111;27;45298;-49
2022/08/24 03:36:16;;;;;;;;;3.75;3.75;;;;;23.37;60.94;101248.75;5100453;27;45213;-51
2022/08/24 03:38:41;;;;;;;;;3.20;3.20;;;;;23.38;60.83;101245.78;5099738;27;45372;-56
2022/08/24 03:41:07;;;;;;;;;4.00;2.00;;;;;23.28;60.63;101229.16;5099901;27;45448;-54
2022/08/24 03:43:45;;;;;;;;;3.20;3.00;;;;;23.37;61.04;101243.31;5099331;27;45290;-53
2022/08/24 03:46:12;;;;;;;;;4.00;4.00;;;;;23.38;60.72;101245.78;5099981;27;45501;-52
2022/08/24 03:48:43;;;;;;;;;3.80;3.80;;;;;23.38;60.68;101242.25;5081288;27;48665;-52
2022/08/24 03:51:14;;;;;;;;;2.40;2.40;;;;;23.37;60.61;101232.44;5099671;27;45250;-53
2022/08/24 03:53:40;;;;;;;;;6.00;3.00;;;;;23.34;60.82;101244.59;5099721;27;45424;-54
2022/08/24 03:56:07;;;;;;;;;4.80;4.20;;;;;23.35;60.97;101242.72;5099835;27;45316;-56
2022/08/24 03:58:37;;;;;;;;;4.80;3.00;;;;;23.35;60.98;101237.28;5099610;27;46261;-53
2022/08/24 04:01:04;;;;;;;;;3.20;3.20;;;;;23.34;60.94;101244.59;5099711;27;45393;-53
2022/08/24 04:03:30;;;;;;;;;4.60;4.60;;;;;23.30;60.91;101237.94;5099916;27;45344;-54
2022/08/24 04:05:55;;;;;;;;;3.00;3.00;;;;;23.31;61.13;101236.88;5099875;27;45339;-54
2022/08/24 04:08:21;;;;;;;;;5.00;3.75;;;;;23.26;60.41;101230.44;5099596;27;46021;-53
2022/08/24 04:10:47;;;;;;;;;3.25;3.25;;;;;23.18;60.92;101215.25;5099376;27;45306;-53
2022/08/24 04:13:12;;;;;;;;;3.00;3.00;;;;;23.18;61.30;101222.56;5099179;27;45183;-52
2022/08/24 04:15:40;;;;;;;;;4.50;3.00;;;;;23.27;61.06;101238.38;5099764;27;45237;-51
2022/08/24 04:18:05;;;;;;;;;3.60;3.60;;;;;23.19;60.86;101235.91;5098842;27;47267;-53
2022/08/24 04:20:32;;;;;;;;;7.00;3.25;;;;;23.25;61.01;101240.47;5099380;27;45336;-51
2022/08/24 04:22:57;;;;;;;;;4.00;4.00;;;;;23.10;61.15;101216.34;5099292;27;45458;-55
2022/08/24 04:25:23;;;;;;;;;3.75;3.75;;;;;23.22;61.03;101246.34;5098617;27;45342;-54
2022/08/24 04:27:49;;;;;;;;;3.20;3.20;;;;;23.20;61.33;101240.28;5099122;27;46709;-55
2022/08/24 04:30:15;;;;;;;;;5.00;3.25;;;;;23.21;61.04;101244.66;5099006;27;45192;-54
2022/08/24 04:32:40;;;;;;;;;3.25;3.25;;;;;23.16;61.15;101241.78;5099125;27;45417;-50
2022/08/24 04:35:06;;;;;;;;;5.00;3.00;;;;;23.15;61.30;101240.13;5099202;27;45488;-52
2022/08/24 04:37:31;;;;;;;;;4.50;4.00;;;;;23.16;61.29;101239.06;5098645;27;46237;-54
2022/08/24 04:39:57;;;;;;;;;2.75;2.75;;;;;23.15;61.43;101237.41;5099045;27;45302;-53
2022/08/24 04:42:22;;;;;;;;;4.00;3.50;;;;;23.12;61.44;101235.94;5098806;27;45272;-52
2022/08/24 04:44:49;;;;;;;;;5.00;3.75;;;;;23.15;61.55;101237.41;5080796;27;45423;-53
2022/08/24 04:47:14;;;;;;;;;4.40;4.40;;;;;23.13;61.63;101240.34;5098623;27;45928;-54
2022/08/24 04:49:39;;;;;;;;;4.00;4.00;;;;;23.13;61.46;101237.63;5098892;27;45435;-51
2022/08/24 04:52:06;;;;;;;;;5.00;2.50;;;;;23.12;61.59;101237.81;5098797;27;45448;-53
2022/08/24 04:54:32;;;;;;;;;4.80;3.20;;;;;23.11;61.61;101234.28;5098918;27;45504;-54
2022/08/24 04:56:57;;;;;;;;;4.00;3.75;;;;;23.11;61.70;101237.00;5098771;27;45392;-54
2022/08/24 04:59:23;;;;;;;;;3.75;3.75;;;;;23.11;61.71;101245.13;5098766;27;45393;-53
2022/08/24 05:01:49;;;;;;;;;4.75;4.75;;;;;23.11;61.89;101236.16;5098570;27;45540;-51
2022/08/24 05:04:14;;;;;;;;;4.00;4.00;;;;;23.10;61.62;101239.94;5099006;27;45314;-52
2022/08/24 05:06:40;;;;;;;;;4.00;3.25;;;;;23.08;62.04;101237.44;5098341;27;46979;-51
2022/08/24 05:09:06;;;;;;;;;3.60;3.40;;;;;23.05;61.79;101242.44;5098408;27;45235;-52
2022/08/24 05:11:34;;;;;;;;;4.00;3.25;;;;;23.07;61.70;101243.91;5098457;27;45403;-52
2022/08/24 05:14:00;;;;;;;;;5.40;4.60;;;;;23.02;61.79;101245.63;5098491;27;45407;-51
2022/08/24 05:16:26;;;;;;;;;5.00;4.50;;;;;22.93;61.86;101220.63;5098142;27;47130;-53
2022/08/24 05:18:53;;;;;;;;;7.00;5.60;;;;;23.02;61.99;101237.47;5098023;27;45580;-52
2022/08/24 05:21:21;;;;;;;;;5.80;4.00;;;;;23.03;61.92;101241.84;5098140;27;45297;-52
2022/08/24 05:23:46;;;;;;;;;7.40;5.80;;;;;23.01;62.09;101243.97;5098547;27;45322;-50
2022/08/24 05:26:23;;;;;;;;;4.25;3.75;;;;;23.01;61.79;101247.50;5097848;27;46083;-51
2022/08/24 05:28:49;;;;;;;;;5.00;5.00;;;;;23.01;62.10;101252.94;5098045;27;45176;-50
2022/08/24 05:31:17;;;;;;;;;3.00;3.00;;;;;23.01;61.76;101252.09;5098078;27;45261;-52
2022/08/24 05:33:44;;;;;;;;;5.60;3.40;;;;;23.01;61.87;101255.66;5097995;27;45372;-53
2022/08/24 05:36:15;;;;;;;;;3.80;3.80;;;;;23.03;61.60;101260.84;5097322;27;46627;-52
2022/08/24 05:38:40;;;;;;;;;4.40;4.40;;;;;23.04;61.91;101248.94;5097398;27;45371;-51
2022/08/24 05:41:05;;;;;;;;;6.50;6.50;;;;;23.02;61.77;101249.16;5096684;27;45324;-51
2022/08/24 05:43:31;;;;;;;;;3.75;3.00;;;;;22.99;61.81;101252.28;5098139;27;45470;-52
2022/08/24 05:45:56;;;;;;;;;4.00;4.00;;;;;23.02;61.98;101256.47;5097777;27;46640;-55
2022/08/24 05:48:22;;;;;;;;;6.00;5.00;;;;;23.02;61.59;101253.75;5097457;27;45667;-52
2022/08/24 05:50:54;;;;;;;;;5.00;4.75;;;;;23.01;61.66;101258.34;5097838;27;45399;-52
2022/08/24 05:53:20;;;;;;;;;6.00;4.80;;;;;22.95;61.68;101242.09;5098127;27;45394;-53
2022/08/24 05:55:45;;;;;;;;;1.75;1.75;;;;;22.96;61.78;101241.88;5097736;27;45325;-53
2022/08/24 05:58:11;;;;;;;;;5.00;5.00;;;;;23.06;61.62;101252.28;5097673;27;45403;-53
2022/08/24 06:00:37;;;;;;;;;4.25;4.00;;;;;23.06;61.75;101253.09;5097615;27;45494;-52
2022/08/24 06:03:02;;;;;;;;;8.00;6.00;;;;;23.12;60.98;101262.25;5097864;27;45688;-54
2022/08/24 06:05:28;;;;;;;;;8.25;6.25;;;;;23.11;61.48;101264.13;5097455;27;46218;-52
2022/08/24 06:07:54;;;;;;;;;4.25;4.25;;;;;23.15;61.37;101267.25;5097727;27;45345;-50
2022/08/24 06:10:19;;;;;;;;;4.50;4.50;;;;;23.18;61.28;101263.28;5097709;27;45368;-53
2022/08/24 06:12:45;;;;;;;;;5.25;5.00;;;;;23.19;60.29;101268.47;5097751;27;45478;-52
2022/08/24 06:15:11;;;;;;;;;6.00;5.00;;;;;23.14;60.51;101255.56;5097443;27;46090;-52
2022/08/24 06:17:36;;;;;;;;;5.75;4.75;;;;;23.15;60.76;101261.81;5097320;27;45481;-53
2022/08/24 06:20:03;;;;;;;;;6.00;5.00;;;;;23.20;60.84;101266.59;5097674;27;45353;-52
2022/08/24 06:22:28;;;;;;;;;9.00;5.80;;;;;23.20;60.35;101264.72;5097415;27;45334;-52
2022/08/24 06:27:37;;;;;;;;;4.60;4.40;;;;;23.23;60.32;101267.00;5097371;27;45370;-52
2022/08/24 06:30:08;;;;;;;;;5.75;5.75;;;;;23.27;60.16;101270.13;5097319;27;45391;-54
2022/08/24 06:32:35;;;;;;;;;1.60;1.40;;;;;23.25;59.47;101269.50;5097483;27;45256;-53
2022/08/24 06:35:00;;;;;;;;;7.20;5.40;;;;;23.30;59.49;101275.09;5097104;27;45396;-49
2022/08/24 06:37:26;;;;;;;;;2.25;2.25;;;;;23.34;59.98;101282.59;5096929;27;45542;-53
2022/08/24 06:39:53;;;;;;;;;4.00;4.00;;;;;23.36;59.45;101271.53;5097146;27;45402;-52
2022/08/24 06:42:18;;;;;;;;;5.60;5.00;;;;;23.46;59.51;101273.75;5097433;27;45342;-54
2022/08/24 06:44:43;;;;;;;;;9.25;6.00;;;;;23.46;59.41;101269.13;5096926;27;46074;-51
2022/08/24 06:47:10;;;;;;;;;6.00;4.00;;;;;23.53;59.50;101272.66;5096640;27;45265;-50
2022/08/24 06:49:36;;;;;;;;;8.00;6.40;;;;;23.57;59.23;101262.19;5099938;27;45395;-52
2022/08/24 06:52:03;;;;;;;;;4.20;4.20;;;;;23.65;59.36;101268.22;5100724;27;45422;-52
2022/08/24 06:54:29;;;;;;;;;5.20;5.00;;;;;23.71;59.00;101260.22;5100566;27;47384;-55
2022/08/24 06:56:55;;;;;;;;;7.75;4.75;;;;;23.69;58.75;101249.59;5100546;27;45356;-53
2022/08/24 06:59:21;;;;;;;;;7.00;4.60;;;;;23.77;58.45;101264.78;5100602;27;45280;-52
2022/08/24 07:01:46;;;;;;;;;4.00;4.00;;;;;23.93;58.36;101266.09;5100455;27;45230;-54
2022/08/24 07:04:12;;;;;;;;;6.00;3.50;;;;;23.97;57.88;101260.00;5100239;27;45973;-52
2022/08/24 07:06:37;;;;;;;;;4.00;4.00;;;;;24.10;58.25;101248.16;5100448;27;45362;-53
2022/08/24 07:09:04;;;;;;;;;6.00;5.75;;;;;24.49;57.10;101265.19;5100319;27;45500;-58
2022/08/24 07:11:29;;;;;;;;;5.40;5.40;;;;;25.41;54.55;101262.31;5100738;27;45242;-54
2022/08/24 07:13:54;;;;;;;;;4.00;4.00;;;;;26.78;51.27;101264.78;5100263;27;45203;-54
2022/08/24 07:16:21;;;;;;;;;5.00;3.50;;;;;28.03;48.99;101255.59;5100156;27;45277;-52
2022/08/24 07:18:47;;;;;;;;;5.20;5.00;;;;;29.08;46.08;101255.66;5100141;27;45425;-50
2022/08/24 07:21:12;;;;;;;;;4.00;3.33;;;;;29.99;44.56;101255.66;5100177;27;45451;-52
2022/08/24 07:23:38;;;;;;;;;5.75;5.00;;;;;30.63;42.66;101264.81;5100196;27;45410;-56
2022/08/24 07:26:09;;;;;;;;;3.50;3.25;;;;;31.39;41.25;101262.31;5099974;27;45323;-53
2022/08/24 07:28:36;;;;;;;;;3.40;3.40;;;;;32.19;40.59;101259.00;5100031;27;45440;-52
2022/08/24 07:31:04;;;;;;;;;3.80;3.60;;;;;32.86;38.66;101263.19;5100222;27;45486;-55
2022/08/24 07:33:30;;;;;;;;;3.00;3.00;;;;;33.44;38.13;101257.06;5099636;27;46468;-54
2022/08/24 07:35:56;;;;;;;;;3.00;3.00;;;;;34.08;37.69;101267.03;5099903;27;45321;-54
2022/08/24 07:38:21;;;;;;;;;4.25;2.75;;;;;34.38;36.16;101262.28;5099801;27;45219;-54
2022/08/24 07:40:47;;;;;;;;;6.50;4.75;;;;;34.92;34.73;101263.84;5100201;27;45353;-53
2022/08/24 07:43:13;;;;;;;;;6.75;3.25;;;;;35.47;36.09;101262.22;5099626;27;46100;-53
2022/08/24 07:45:41;;;;;;;;;1.50;1.50;;;;;36.07;34.18;101267.03;5099720;27;45703;-53
2022/08/24 07:48:07;;;;;;;;;3.40;3.40;;;;;36.61;32.36;101265.41;5099668;27;45412;-53
2022/08/24 07:50:33;;;;;;;;;2.40;2.40;;;;;37.03;32.02;101268.94;5100231;27;45412;-53
2022/08/24 07:52:59;;;;;;;;;6.80;5.00;;;;;37.39;30.63;101268.97;5099631;27;47305;-54
2022/08/24 07:55:25;;;;;;;;;4.00;4.00;;;;;37.43;30.92;101275.53;5099599;27;45267;-52
2022/08/24 07:57:50;;;;;;;;;5.40;4.00;;;;;37.18;30.33;101270.56;5099797;27;45361;-53
2022/08/24 08:00:18;;;;;;;;;6.00;4.50;;;;;37.08;29.96;101279.09;5098503;27;45412;-53
2022/08/24 08:02:46;;;;;;;;;4.20;4.20;;;;;36.98;30.43;101280.16;5099322;27;46456;-53
2022/08/24 08:05:16;;;;;;;;;2.20;2.20;;;;;36.84;30.89;101279.34;5099253;27;45307;-53
2022/08/24 08:07:41;;;;;;;;;2.60;2.60;;;;;37.11;30.46;101289.56;5099592;27;45526;-54
2022/08/24 08:10:09;;;;;;;;;4.00;4.00;;;;;37.11;32.98;101272.94;5099789;27;45528;-53
2022/08/24 08:12:35;;;;;;;;;2.20;2.20;;;;;37.30;31.88;101283.88;5099207;27;46939;-55
2022/08/24 08:15:00;;;;;;;;;4.40;4.40;;;;;37.59;29.88;101289.84;5098755;27;45377;-53
2022/08/24 08:17:26;;;;;;;;;4.00;3.00;;;;;38.05;29.52;101287.84;5099483;27;45446;-53
2022/08/24 08:19:52;;;;;;;;;5.50;4.75;;;;;38.68;31.83;101294.97;5099391;27;45440;-53
2022/08/24 08:25:05;;;;;;;;;5.40;3.00;;;;;39.70;26.99;101277.91;5099251;27;45457;-53
2022/08/24 08:27:31;;;;;;;;;2.00;2.00;;;;;40.18;26.00;101287.94;5099282;27;45211;-53
2022/08/24 08:29:57;;;;;;;;;3.80;2.80;;;;;40.72;26.01;101290.97;5099436;27;45379;-54
2022/08/24 08:32:22;;;;;;;;;5.75;3.50;;;;;41.14;24.96;101285.44;5099007;27;45971;-53
2022/08/24 08:34:48;;;;;;;;;3.00;3.00;;;;;42.32;23.43;101284.06;5098364;27;45151;-53
2022/08/24 08:37:14;;;;;;;;;5.00;5.00;;;;;44.03;21.84;101289.13;5099063;27;45289;-55
2022/08/24 08:39:40;;;;;;;;;3.60;2.20;;;;;45.97;20.67;101280.16;5099442;27;45289;-55
2022/08/24 08:42:22;;;;;;;;;1.80;1.80;;;;;47.39;18.91;101289.09;5098081;27;46130;-55
2022/08/24 08:45:02;;;;;;;;;4.60;2.80;;;;;48.47;17.51;101294.56;5098814;27;45312;-54
2022/08/24 08:47:42;;;;;;;;;2.00;2.00;;;;;49.53;18.32;101290.63;5098825;27;45401;-53
2022/08/24 08:50:55;;;;;;;;;2.20;2.20;;;;;50.10;15.36;101290.66;5099061;27;45431;-53
2022/08/24 08:53:27;;;;;;;;;2.00;2.00;;;;;50.91;14.50;101282.47;5098557;27;46238;-54
2022/08/24 08:56:33;;;;;;;;;1.40;1.40;;;;;50.88;15.45;101286.94;5098645;27;45372;-53
2022/08/24 08:59:09;;;;;;;;;2.60;2.00;;;;;51.82;14.01;101287.19;5098653;27;45491;-53
2022/08/24 09:01:51;;;;;;;;;2.60;1.00;;;;;52.52;13.68;101290.63;5098738;27;45354;-53
2022/08/24 09:04:28;;;;;;;;;0.00;0.00;;;;;52.88;13.84;101287.34;5098467;27;46293;-54
2022/08/24 09:07:18;;;;;;;;;1.20;1.20;;;;;53.45;13.57;101289.47;5098607;27;45301;-53
2022/08/24 09:10:21;;;;;;;;;0.00;0.00;;;;;54.28;12.60;101284.03;5098687;27;45233;-53
2022/08/24 09:13:07;;;;;;;;;1.25;1.25;;;;;54.75;12.65;101281.06;5097806;27;45480;-53
2022/08/24 09:15:57;;;;;;;;;1.00;1.00;;;;;55.10;11.38;101275.84;5098503;27;46288;-54
2022/08/24 09:18:44;;;;;;;;;1.75;1.25;;;;;55.70;11.53;101279.31;5098431;27;45346;-53
2022/08/24 09:21:47;;;;;;;;;1.75;1.75;;;;;56.33;10.08;101286.66;5098517;27;45381;-53
2022/08/24 09:24:43;;;;;;;;;0.00;0.00;;;;;57.19;11.39;101282.13;5098415;27;45463;-53
2022/08/24 09:27:27;;;;;;;;;0.00;0.00;;;;;56.86;9.91;101284.34;5097579;27;46548;-55
2022/08/24 09:30:20;;;;;;;;;1.25;0.00;;;;;56.57;10.62;101277.88;5098387;27;45349;-53
2022/08/24 09:33:11;;;;;;;;;1.00;1.00;;;;;55.54;12.62;101274.41;5098395;27;45424;-54
2022/08/24 09:35:57;;;;;;;;;0.00;0.00;;;;;56.17;10.73;101278.94;5098423;27;45514;-54
2022/08/24 09:39:05;;;;;;;;;1.25;0.00;;;;;55.37;10.97;101277.69;5097796;27;46089;-54
2022/08/24 09:41:45;;;;;;;;;0.00;0.00;;;;;54.68;10.93;101284.06;5035045;28;45277;-54
2022/08/24 09:44:36;;;;;;;;;1.50;0.25;;;;;54.88;10.52;101275.53;5035187;28;45486;-55
2022/08/24 09:47:02;;;;;;;;;1.00;0.00;;;;;53.94;11.26;101289.91;5035059;28;45613;-54
2022/08/24 09:49:39;;;;;;;;;0.00;0.00;;;;;53.88;11.79;101280.25;5034650;28;46106;-54
2022/08/24 09:52:27;;;;;;;;;3.25;1.00;;;;;54.91;10.45;101270.97;5034855;28;45373;-54
2022/08/24 09:55:26;;;;;;;;;0.00;0.00;;;;;55.96;11.14;101270.94;5034948;28;45320;-54
2022/08/24 09:58:00;;;;;;;;;1.00;0.00;;;;;56.87;10.22;101276.56;5034998;28;45504;-53
2022/08/24 10:00:49;;;;;;;;;0.00;0.00;;;;;57.45;9.30;101271.47;5034946;28;47074;-55
2022/08/24 10:03:26;;;;;;;;;0.00;0.00;;;;;57.68;9.39;101266.66;5034853;28;45438;-54
2022/08/24 10:05:57;;;;;;;;;0.00;0.00;;;;;57.65;9.50;101276.16;5034893;28;45346;-53
2022/08/24 10:08:53;;;;;;;;;0.00;0.00;;;;;57.85;9.36;101270.13;5034901;28;45386;-54
2022/08/24 10:11:39;;;;;;;;;1.25;1.25;;;;;57.64;9.05;101271.69;5033990;28;45422;-55
2022/08/24 10:14:29;;;;;;;;;0.75;0.00;;;;;57.59;9.56;101270.19;5034556;28;45420;-55
2022/08/24 10:17:13;;;;;;;;;0.00;0.00;;;;;57.91;8.63;101266.25;5034603;28;45452;-54
2022/08/24 10:19:44;;;;;;;;;0.25;0.25;;;;;57.77;8.77;101266.72;5094424;27;45221;-54
2022/08/24 10:22:15;;;;;;;;;0.00;0.00;;;;;57.52;8.78;101249.59;5097461;27;45813;-54
2022/08/24 10:24:52;;;;;;;;;0.25;0.25;;;;;57.67;9.07;101240.09;5100584;27;45887;-56
2022/08/24 10:27:33;;;;;;;;;0.25;0.25;;;;;57.81;9.19;101243.69;5101378;27;45426;-53
2022/08/24 10:30:27;;;;;;;;;0.00;0.00;;;;;57.62;11.14;101237.78;5101398;27;45314;-56
2022/08/24 10:33:17;;;;;;;;;0.25;0.00;;;;;56.00;9.52;101226.75;5017827;28;45487;-55
2022/08/24 10:36:11;;;;;;;;;0.00;0.00;;;;;55.03;11.25;101222.63;5018056;28;45446;-54
2022/08/24 10:42:09;;;;;;;;;0.00;0.00;;;;;54.39;11.81;101224.00;4998239;28;45390;-55
2022/08/24 10:45:07;;;;;;;;;0.50;0.00;;;;;54.66;10.94;101238.13;4997040;28;46373;-55
2022/08/24 10:47:35;;;;;;;;;0.00;0.00;;;;;54.90;10.01;101223.78;4997796;28;45409;-54
2022/08/24 10:50:30;;;;;;;;;1.00;0.00;;;;;55.29;11.15;101220.84;4997950;28;46032;-54
2022/08/24 10:53:18;;;;;;;;;0.00;0.00;;;;;54.92;10.10;101229.84;4998015;28;45463;-55
2022/08/24 10:55:44;;;;;;;;;0.40;0.40;;;;;54.80;10.74;101208.50;4997548;28;45396;-54
2022/08/24 10:58:32;;;;;;;;;0.00;0.00;;;;;54.82;10.93;101223.09;4997754;28;45364;-53
2022/08/24 11:01:22;;;;;;;;;0.00;0.00;;;;;54.73;11.28;101218.00;4997910;28;45446;-54
2022/08/24 11:03:52;;;;;;;;;0.20;0.20;;;;;54.92;10.65;101218.44;4997730;28;46088;-55
2022/08/24 11:06:19;;;;;;;;;0.00;0.00;;;;;54.97;11.84;101209.38;4997391;28;47586;-55
2022/08/24 11:08:55;;;;;;;;;0.20;0.20;;;;;54.29;10.83;101213.66;4997507;28;45284;-54
2022/08/24 11:11:33;;;;;;;;;0.00;0.00;;;;;54.28;11.02;101200.63;5080257;27;45418;-54
2022/08/24 11:14:22;;;;;;;;;1.00;0.00;;;;;54.55;10.30;101203.34;5080314;28;45435;-54
2022/08/24 11:16:47;;;;;;;;;0.00;0.00;;;;;53.99;11.27;101195.50;5079653;27;46847;-53
2022/08/24 11:19:30;;;;;;;;;0.00;0.00;;;;;53.47;11.13;101195.97;5079807;27;45595;-55
2022/08/24 11:21:57;;;;;;;;;0.00;0.00;;;;;53.53;11.02;101204.81;5079779;27;45415;-54
2022/08/24 11:24:42;;;;;;;;;0.00;0.00;;;;;53.70;10.63;101194.41;5080167;28;45331;-53
2022/08/24 11:27:16;;;;;;;;;0.00;0.00;;;;;53.98;10.76;101185.34;5079709;28;47139;-53
2022/08/24 11:29:51;;;;;;;;;0.00;0.00;;;;;53.51;10.72;101176.78;5079749;28;45516;-55
2022/08/24 11:32:40;;;;;;;;;1.00;0.80;;;;;53.46;10.94;101182.19;5079657;27;45482;-53
2022/08/24 11:35:18;;;;;;;;;0.00;0.00;;;;;52.92;11.54;101176.53;5079621;28;45415;-54
2022/08/24 11:37:44;;;;;;;;;1.00;0.00;;;;;52.36;11.05;101171.13;5085263;27;47134;-55
2022/08/24 11:40:11;;;;;;;;;0.40;0.00;;;;;51.44;12.27;101162.28;5100029;27;45341;-56
2022/08/24 11:42:46;;;;;;;;;0.00;0.00;;;;;50.92;12.87;101153.75;5100242;27;45375;-54
2022/08/24 11:45:11;;;;;;;;;0.00;0.00;;;;;50.85;12.78;101160.22;5100184;27;45278;-54
2022/08/24 11:47:54;;;;;;;;;0.00;0.00;;;;;49.94;13.39;101152.47;5099938;27;47128;-54
2022/08/24 11:50:32;;;;;;;;;0.00;0.00;;;;;49.83;12.78;101150.88;5099960;27;45360;-54
2022/08/24 11:53:12;;;;;;;;;0.00;0.00;;;;;49.26;13.40;101148.81;5099973;27;45456;-53